createdAt,value
2019-05-20T00:00:39.493Z,92.13
2019-05-20T00:03:07.999Z,92.58
2019-05-20T00:05:36.526Z,92.83
2019-05-20T00:08:04.911Z,93.11
2019-05-20T00:10:33.356Z,93.29
2019-05-20T00:13:01.781Z,93.78
2019-05-20T00:15:30.294Z,93.43
2019-05-20T00:17:58.719Z,93.59
2019-05-20T00:20:27.224Z,93.64
2019-05-20T00:22:55.631Z,93.33
2019-05-20T00:25:24.050Z,93.04
2019-05-20T00:27:52.469Z,93.56
2019-05-20T00:30:21.043Z,93.78
2019-05-20T00:32:49.462Z,94.12
2019-05-20T00:35:17.885Z,94.40
2019-05-20T00:37:46.325Z,94.30
2019-05-20T00:40:15.885Z,94.09
2019-05-20T00:42:44.319Z,93.83
2019-05-20T00:45:13.390Z,93.71
2019-05-20T00:47:41.815Z,93.90
2019-05-20T00:50:10.974Z,93.62
2019-05-20T00:52:39.495Z,94.07
2019-05-20T00:55:10.034Z,94.13
2019-05-20T00:57:38.437Z,93.61
2019-05-20T01:00:07.605Z,93.04
2019-05-20T01:02:36.038Z,93.37
2019-05-20T01:05:04.926Z,93.59
2019-05-20T01:07:33.421Z,94.19
2019-05-20T01:10:01.929Z,94.50
2019-05-20T01:12:30.324Z,94.22
2019-05-20T01:14:59.013Z,94.79
2019-05-20T01:17:27.411Z,94.50
2019-05-20T01:19:55.832Z,94.34
2019-05-20T01:22:24.339Z,94.43
2019-05-20T01:24:52.785Z,94.52
2019-05-20T01:27:21.186Z,94.33
2019-05-20T01:29:49.602Z,94.46
2019-05-20T01:32:18.049Z,94.38
2019-05-20T01:34:55.775Z,94.60
2019-05-20T01:37:24.244Z,94.91
2019-05-20T01:39:52.692Z,95.18
2019-05-20T01:42:21.136Z,95.30
2019-05-20T01:44:49.567Z,95.49
2019-05-20T01:47:17.995Z,94.93
2019-05-20T01:49:46.410Z,94.48
2019-05-20T01:52:14.849Z,94.64
2019-05-20T01:54:43.269Z,94.69
2019-05-20T01:57:11.705Z,94.52
2019-05-20T01:59:40.170Z,94.36
2019-05-20T02:02:08.573Z,94.53
2019-05-20T02:04:36.996Z,94.27
2019-05-20T02:07:05.434Z,94.20
2019-05-20T02:09:33.847Z,94.30
2019-05-20T02:12:02.282Z,93.98
2019-05-20T02:14:41.090Z,93.62
2019-05-20T02:17:09.712Z,93.90
2019-05-20T02:19:38.149Z,93.85
2019-05-20T02:22:06.657Z,93.81
2019-05-20T02:24:35.162Z,93.94
2019-05-20T02:27:03.605Z,93.66
2019-05-20T02:29:32.037Z,93.37
2019-05-20T02:32:00.462Z,93.46
2019-05-20T02:34:28.940Z,93.60
2019-05-20T02:36:57.463Z,93.26
2019-05-20T02:39:26.786Z,93.12
2019-05-20T02:41:55.414Z,93.14
2019-05-20T02:44:23.840Z,93.51
2019-05-20T02:46:52.276Z,93.39
2019-05-20T02:49:20.752Z,92.73
2019-05-20T02:51:49.273Z,92.58
2019-05-20T02:54:17.771Z,93.24
2019-05-20T02:56:46.782Z,92.80
2019-05-20T02:59:15.212Z,92.77
2019-05-20T03:01:43.794Z,92.98
2019-05-20T03:04:13.176Z,92.49
2019-05-20T03:06:41.670Z,92.82
2019-05-20T03:09:12.271Z,93.54
2019-05-20T03:11:40.335Z,93.31
2019-05-20T03:14:08.748Z,93.04
2019-05-20T03:16:37.170Z,92.95
2019-05-20T03:19:05.644Z,93.09
2019-05-20T03:21:34.057Z,93.50
2019-05-20T03:24:02.475Z,93.46
2019-05-20T03:26:30.986Z,93.23
2019-05-20T03:28:59.445Z,93.35
2019-05-20T03:31:27.877Z,93.18
2019-05-20T03:33:56.290Z,93.25
2019-05-20T03:36:24.710Z,93.76
2019-05-20T03:38:53.175Z,93.86
2019-05-20T03:41:21.605Z,93.89
2019-05-20T03:43:50.029Z,94.24
2019-05-20T03:46:18.488Z,94.08
2019-05-20T03:48:47.323Z,94.04
2019-05-20T03:51:15.741Z,94.28
2019-05-20T03:53:44.218Z,94.45
2019-05-20T03:56:12.665Z,94.54
2019-05-20T03:58:41.141Z,94.62
2019-05-20T04:01:09.583Z,94.48
2019-05-20T04:03:38.111Z,94.56
2019-05-20T04:06:06.545Z,94.71
2019-05-20T04:08:34.976Z,94.81
2019-05-20T04:11:03.438Z,94.71
2019-05-20T04:13:34.707Z,94.66
2019-05-20T04:16:02.046Z,94.78
2019-05-20T04:18:30.544Z,94.91
2019-05-20T04:20:58.961Z,94.70
2019-05-20T04:23:27.398Z,94.80
2019-05-20T04:25:55.840Z,95.48
2019-05-20T04:28:24.305Z,95.45
2019-05-20T04:30:52.834Z,94.98
2019-05-20T04:33:21.298Z,94.98
2019-05-20T04:35:50.147Z,95.09
2019-05-20T04:38:18.752Z,94.92
2019-05-20T04:57:19.035Z,92.57
2019-05-20T04:59:47.972Z,92.87
2019-05-20T05:02:16.402Z,93.13
2019-05-20T05:04:44.841Z,93.09
2019-05-20T05:07:13.283Z,93.06
2019-05-20T05:09:41.773Z,93.37
2019-05-20T05:12:10.242Z,93.37
2019-05-20T05:14:38.695Z,94.35
2019-05-20T05:17:07.317Z,94.33
2019-05-20T05:19:35.728Z,94.10
2019-05-20T05:22:04.262Z,93.60
2019-05-20T05:24:32.765Z,94.11
2019-05-20T05:27:01.344Z,94.10
2019-05-20T05:29:29.856Z,94.04
2019-05-20T05:31:58.280Z,94.32
2019-05-20T05:34:26.736Z,94.20
2019-05-20T05:36:55.244Z,94.30
2019-05-20T05:39:23.707Z,94.39
2019-05-20T05:41:52.140Z,94.70
2019-05-20T05:44:20.562Z,94.44
2019-05-20T05:46:49.113Z,94.63
2019-05-20T05:49:18.240Z,94.65
2019-05-20T05:51:46.683Z,94.25
2019-05-20T05:54:15.155Z,93.63
2019-05-20T05:56:43.570Z,94.12
2019-05-20T05:59:12.025Z,93.75
2019-05-20T06:01:40.595Z,93.44
2019-05-20T06:04:09.203Z,93.53
2019-05-20T06:06:37.648Z,93.52
2019-05-20T06:09:07.160Z,94.04
2019-05-20T06:11:35.574Z,93.54
2019-05-20T06:14:04.110Z,94.07
2019-05-20T06:16:36.650Z,93.52
2019-05-20T06:19:02.795Z,93.65
2019-05-20T06:21:31.242Z,93.83
2019-05-20T06:23:59.743Z,94.34
2019-05-20T06:26:28.160Z,93.70
2019-05-20T06:28:56.563Z,93.88
2019-05-20T06:31:25.083Z,94.15
2019-05-20T06:33:53.504Z,93.89
2019-05-20T06:36:27.000Z,93.33
2019-05-20T06:38:53.950Z,93.51
2019-05-20T06:41:22.451Z,92.68
2019-05-20T06:43:50.892Z,93.15
2019-05-20T06:46:19.331Z,92.82
2019-05-20T06:48:47.749Z,93.02
2019-05-20T06:51:16.160Z,93.46
2019-05-20T06:53:44.598Z,93.25
2019-05-20T06:56:13.051Z,93.10
2019-05-20T06:58:41.471Z,93.02
2019-05-20T07:01:09.912Z,92.81
2019-05-20T07:03:38.322Z,92.74
2019-05-20T07:06:06.761Z,92.16
2019-05-20T07:08:35.185Z,92.65
2019-05-20T07:11:03.609Z,92.53
2019-05-20T07:13:32.025Z,92.32
2019-05-20T07:16:00.435Z,92.63
2019-05-20T07:18:28.861Z,92.74
2019-05-20T07:20:57.293Z,92.86
2019-05-20T07:23:25.725Z,92.54
2019-05-20T07:25:54.151Z,92.31
2019-05-20T07:28:23.152Z,92.30
2019-05-20T07:30:51.543Z,92.87
2019-05-20T07:33:19.983Z,92.67
2019-05-20T07:35:48.412Z,92.42
2019-05-20T07:38:16.842Z,92.30
2019-05-20T07:40:45.269Z,92.64
2019-05-20T07:43:13.689Z,92.87
2019-05-20T07:45:42.454Z,92.67
2019-05-20T07:48:11.208Z,93.01
2019-05-20T07:50:41.288Z,93.10
2019-05-20T07:53:11.425Z,93.45
2019-05-20T07:55:42.893Z,93.38
2019-05-20T07:58:13.068Z,93.62
2019-05-20T08:00:41.770Z,93.22
2019-05-20T08:03:10.205Z,92.44
2019-05-20T08:05:38.673Z,93.06
2019-05-20T08:08:07.112Z,92.78
2019-05-20T08:10:35.634Z,92.42
2019-05-20T08:13:04.135Z,92.22
2019-05-20T08:15:32.539Z,92.67
2019-05-20T08:18:00.945Z,92.17
2019-05-20T08:20:29.419Z,91.63
2019-05-20T08:22:57.861Z,92.60
2019-05-20T08:25:26.282Z,92.69
2019-05-20T08:27:54.730Z,92.43
2019-05-20T08:30:35.159Z,92.75
2019-05-20T08:33:04.043Z,92.15
2019-05-20T08:35:32.563Z,91.85
2019-05-20T08:38:01.081Z,92.27
2019-05-20T08:40:29.481Z,91.69
2019-05-20T08:42:57.912Z,91.69
2019-05-20T08:45:26.328Z,91.76
2019-05-20T08:47:54.784Z,91.71
2019-05-20T08:50:23.208Z,91.74
2019-05-20T08:52:51.641Z,91.27
2019-05-20T08:55:20.047Z,91.93
2019-05-20T08:57:48.539Z,92.08
2019-05-20T09:00:23.702Z,91.71
2019-05-20T09:02:52.164Z,90.54
2019-05-20T09:05:20.621Z,91.39
2019-05-20T09:08:02.081Z,91.00
2019-05-20T09:10:19.570Z,91.00
2019-05-20T09:12:47.997Z,90.52
2019-05-20T09:15:17.974Z,90.29
2019-05-20T09:17:46.482Z,90.64
2019-05-20T09:20:15.326Z,90.17
2019-05-20T09:22:43.763Z,90.36
2019-05-20T09:25:12.790Z,90.57
2019-05-20T09:27:41.396Z,90.81
2019-05-20T09:30:10.461Z,89.71
2019-05-20T09:32:42.848Z,89.27
2019-05-20T09:35:10.104Z,90.09
2019-05-20T09:37:38.530Z,90.23
2019-05-20T09:40:07.586Z,90.19
2019-05-20T09:42:36.010Z,89.60
2019-05-20T09:45:05.612Z,90.12
2019-05-20T09:47:34.027Z,89.26
2019-05-20T09:52:48.583Z,88.84
2019-05-20T09:55:17.058Z,89.04
2019-05-20T09:57:45.489Z,89.43
2019-05-20T10:00:14.032Z,89.02
2019-05-20T10:02:42.491Z,89.63
2019-05-20T10:05:11.017Z,89.25
2019-05-20T10:07:39.447Z,88.91
2019-05-20T10:10:07.991Z,89.13
2019-05-20T10:12:45.865Z,89.14
2019-05-20T10:15:07.743Z,89.18
2019-05-20T10:17:36.260Z,88.39
2019-05-20T10:20:06.664Z,89.01
2019-05-20T10:22:35.270Z,88.57
2019-05-20T10:25:05.276Z,88.55
2019-05-20T10:27:33.685Z,88.22
2019-05-20T10:30:02.194Z,88.39
2019-05-20T10:32:30.696Z,88.59
2019-05-20T10:34:59.151Z,88.83
2019-05-20T10:37:27.575Z,87.89
2019-05-20T10:39:55.987Z,87.61
2019-05-20T10:42:24.458Z,88.22
2019-05-20T10:44:52.946Z,87.27
2019-05-20T10:47:21.337Z,87.06
2019-05-20T10:49:50.039Z,87.13
2019-05-20T10:52:18.553Z,87.45
2019-05-20T10:54:46.949Z,87.02
2019-05-20T10:57:15.384Z,86.44
2019-05-20T10:59:43.837Z,87.05
2019-05-20T11:02:12.273Z,86.51
2019-05-20T11:04:40.681Z,86.74
2019-05-20T11:07:09.108Z,86.49
2019-05-20T11:09:37.504Z,86.23
2019-05-20T11:12:05.926Z,86.46
2019-05-20T11:14:35.005Z,87.43
2019-05-20T11:17:03.439Z,86.91
2019-05-20T11:19:31.905Z,87.43
2019-05-20T11:22:00.357Z,86.82
2019-05-20T11:24:28.762Z,85.80
2019-05-20T11:26:57.240Z,86.76
2019-05-20T11:29:25.640Z,85.68
2019-05-20T11:31:54.073Z,84.96
2019-05-20T11:34:22.482Z,85.91
2019-05-20T11:36:50.905Z,85.41
2019-05-20T11:39:32.488Z,84.92
2019-05-20T11:41:54.284Z,84.37
2019-05-20T11:44:19.618Z,84.70
2019-05-20T11:46:48.045Z,84.77
2019-05-20T11:49:16.501Z,84.89
2019-05-20T11:51:44.929Z,84.63
2019-05-20T11:54:13.348Z,83.89
2019-05-20T11:56:41.795Z,83.89
2019-05-20T11:59:10.207Z,82.75
2019-05-20T12:01:38.621Z,83.58
2019-05-20T12:04:07.097Z,84.21
2019-05-20T12:06:35.499Z,83.23
2019-05-20T12:09:05.689Z,82.76
2019-05-20T12:11:34.127Z,82.54
2019-05-20T12:14:02.563Z,82.36
2019-05-20T12:16:30.952Z,82.36
2019-05-20T12:18:59.450Z,82.86
2019-05-20T12:21:27.884Z,82.58
2019-05-20T12:23:56.298Z,82.97
2019-05-20T12:26:24.833Z,82.80
2019-05-20T12:28:53.296Z,82.77
2019-05-20T12:31:22.736Z,83.04
2019-05-20T12:33:51.176Z,83.32
2019-05-20T12:36:19.622Z,82.58
2019-05-20T12:38:48.068Z,82.80
2019-05-20T12:41:16.481Z,82.94
2019-05-20T12:43:45.336Z,82.13
2019-05-20T12:46:13.860Z,82.08
2019-05-20T12:48:42.273Z,81.55
2019-05-20T12:51:14.354Z,81.44
2019-05-20T12:53:41.018Z,81.95
2019-05-20T12:56:09.471Z,82.35
2019-05-20T12:58:37.920Z,82.78
2019-05-20T13:01:06.331Z,82.02
2019-05-20T13:03:34.757Z,82.85
2019-05-20T13:06:03.154Z,82.47
2019-05-20T13:08:31.611Z,81.88
2019-05-20T13:11:00.029Z,82.93
2019-05-20T13:13:28.470Z,82.13
2019-05-20T13:15:56.904Z,82.15
2019-05-20T13:18:25.426Z,82.01
2019-05-20T13:20:53.832Z,81.97
2019-05-20T13:23:22.274Z,81.21
2019-05-20T13:25:50.666Z,80.98
2019-05-20T13:28:19.101Z,81.60
2019-05-20T13:30:47.538Z,80.68
2019-05-20T13:33:15.942Z,80.87
2019-05-20T13:35:44.536Z,80.29
2019-05-20T13:38:12.984Z,81.14
2019-05-20T13:40:46.335Z,81.81
2019-05-20T13:43:11.655Z,81.83
2019-05-20T13:45:40.083Z,82.07
2019-05-20T13:48:08.622Z,82.25
2019-05-20T13:50:37.065Z,81.56
2019-05-20T13:53:05.497Z,82.12
2019-05-20T13:55:33.911Z,82.04
2019-05-20T13:58:02.423Z,81.43
2019-05-20T14:00:30.843Z,80.19
2019-05-20T14:02:59.282Z,80.57
2019-05-20T14:05:27.783Z,80.52
2019-05-20T14:07:56.202Z,79.96
2019-05-20T14:10:24.656Z,80.65
2019-05-20T14:12:53.086Z,79.74
2019-05-20T14:15:21.517Z,79.72
2019-05-20T14:17:49.967Z,80.50
2019-05-20T14:20:18.507Z,80.70
2019-05-20T14:22:46.990Z,80.37
2019-05-20T14:25:15.615Z,81.35
2019-05-20T14:27:44.017Z,81.80
2019-05-20T14:30:12.589Z,81.49
2019-05-20T14:32:41.028Z,81.57
2019-05-20T14:35:09.669Z,81.76
2019-05-20T14:37:38.092Z,82.20
2019-05-20T14:40:07.370Z,81.59
2019-05-20T14:42:35.862Z,81.29
2019-05-20T14:45:05.266Z,81.89
2019-05-20T14:47:33.675Z,81.85
2019-05-20T14:50:02.101Z,82.40
2019-05-20T14:52:30.537Z,82.30
2019-05-20T14:54:58.938Z,82.21
2019-05-20T14:57:27.353Z,81.84
2019-05-20T14:59:55.779Z,81.37
2019-05-20T15:02:24.433Z,81.38
2019-05-20T15:04:52.892Z,81.11
2019-05-20T15:07:30.179Z,82.37
2019-05-20T15:09:51.526Z,81.77
2019-05-20T15:12:19.943Z,81.60
2019-05-20T15:14:48.663Z,81.59
2019-05-20T15:17:17.051Z,82.03
2019-05-20T15:19:45.494Z,83.67
2019-05-20T15:22:13.964Z,83.66
2019-05-20T15:24:42.345Z,84.23
2019-05-20T15:27:10.765Z,83.53
2019-05-20T15:29:39.228Z,83.84
2019-05-20T15:32:07.646Z,83.41
2019-05-20T15:34:36.074Z,83.05
2019-05-20T15:37:04.543Z,84.35
2019-05-20T15:39:33.024Z,84.53
2019-05-20T15:42:01.485Z,84.54
2019-05-20T15:44:29.897Z,84.17
2019-05-20T15:46:58.303Z,83.13
2019-05-20T15:49:26.997Z,83.82
2019-05-20T15:51:55.432Z,84.58
2019-05-20T15:54:23.874Z,84.07
2019-05-20T15:56:52.309Z,83.98
2019-05-20T15:59:20.731Z,83.26
2019-05-20T16:01:49.190Z,83.85
2019-05-20T16:04:18.626Z,83.53
2019-05-20T16:06:47.130Z,82.98
2019-05-20T16:09:17.235Z,83.11
2019-05-20T16:11:45.999Z,83.67
2019-05-20T16:14:14.672Z,82.98
2019-05-20T16:16:43.090Z,83.81
2019-05-20T16:19:11.513Z,83.30
2019-05-20T16:21:39.967Z,83.20
2019-05-20T16:24:08.547Z,83.87
2019-05-20T16:26:37.168Z,84.71
2019-05-20T16:29:05.773Z,84.11
2019-05-20T16:31:34.256Z,84.09
2019-05-20T16:34:02.705Z,84.31
2019-05-20T16:36:31.188Z,84.73
2019-05-20T16:38:59.754Z,84.98
2019-05-20T16:41:28.286Z,84.47
2019-05-20T16:43:56.787Z,84.63
2019-05-20T16:46:25.243Z,84.30
2019-05-20T16:48:53.662Z,84.47
2019-05-20T16:51:22.649Z,84.26
2019-05-20T16:53:51.108Z,83.61
2019-05-20T16:56:19.517Z,83.77
2019-05-20T16:58:47.967Z,83.54
2019-05-20T17:01:16.398Z,83.75
2019-05-20T17:03:45.185Z,83.62
2019-05-20T17:06:13.642Z,84.50
2019-05-20T17:08:42.062Z,84.08
2019-05-20T17:11:10.517Z,84.55
2019-05-20T17:13:38.922Z,84.33
2019-05-20T17:16:07.355Z,84.38
2019-05-20T17:18:35.771Z,84.26
2019-05-20T17:21:05.779Z,84.56
2019-05-20T17:23:34.143Z,84.49
2019-05-20T17:26:02.630Z,84.66
2019-05-20T17:28:31.076Z,84.54
2019-05-20T17:30:59.484Z,85.15
2019-05-20T17:33:27.919Z,84.86
2019-05-20T17:35:56.384Z,85.46
2019-05-20T17:38:24.877Z,85.23
2019-05-20T17:40:53.343Z,84.79
2019-05-20T17:43:21.760Z,84.46
2019-05-20T17:45:50.197Z,84.75
2019-05-20T17:48:18.624Z,84.49
2019-05-20T17:50:47.036Z,84.49
2019-05-20T17:53:17.848Z,83.95
2019-05-20T17:55:45.579Z,83.61
2019-05-20T17:58:14.033Z,83.86
2019-05-20T18:00:42.509Z,83.69
2019-05-20T18:03:10.904Z,83.62
2019-05-20T18:05:39.311Z,84.13
2019-05-20T18:08:07.757Z,82.97
2019-05-20T18:10:36.157Z,83.11
2019-05-20T18:13:04.751Z,83.99
2019-05-20T18:15:33.215Z,83.75
2019-05-20T18:18:01.787Z,83.79
2019-05-20T18:20:30.204Z,83.41
2019-05-20T18:22:58.680Z,83.82
2019-05-20T18:25:27.110Z,84.19
2019-05-20T18:27:55.543Z,84.05
2019-05-20T18:30:24.316Z,84.72
2019-05-20T18:32:52.767Z,84.93
2019-05-20T18:35:21.245Z,84.56
2019-05-20T18:37:49.650Z,84.60
2019-05-20T18:40:18.427Z,84.85
2019-05-20T18:42:46.886Z,84.56
2019-05-20T18:45:15.550Z,84.39
2019-05-20T18:47:44.038Z,83.88
2019-05-20T18:50:13.011Z,84.06
2019-05-20T18:52:41.446Z,84.87
2019-05-20T18:55:10.000Z,84.35
2019-05-20T18:57:38.427Z,84.18
2019-05-20T19:00:09.454Z,84.32
2019-05-20T19:02:37.869Z,84.70
2019-05-20T19:05:07.884Z,84.27
2019-05-20T19:07:36.296Z,84.74
2019-05-20T19:10:06.161Z,84.94
2019-05-20T19:12:34.654Z,85.15
2019-05-20T19:15:03.059Z,85.00
2019-05-20T19:17:31.754Z,86.02
2019-05-20T19:20:00.227Z,85.64
2019-05-20T19:22:28.711Z,86.05
2019-05-20T19:24:57.164Z,86.15
2019-05-20T19:27:25.556Z,86.50
2019-05-20T19:29:53.987Z,85.90
2019-05-20T19:32:22.465Z,85.96
2019-05-20T19:34:50.891Z,86.13
2019-05-20T19:37:19.358Z,85.72
2019-05-20T19:39:47.773Z,85.79
2019-05-20T19:42:16.207Z,85.82
2019-05-20T19:44:44.623Z,86.36
2019-05-20T19:47:13.200Z,85.98
2019-05-20T19:49:42.546Z,85.64
2019-05-20T19:52:11.241Z,86.07
2019-05-20T19:54:39.806Z,86.76
2019-05-20T19:57:08.305Z,86.66
2019-05-20T19:59:36.712Z,86.30
2019-05-20T20:02:16.404Z,86.33
2019-05-20T20:04:35.430Z,86.38
2019-05-20T20:07:04.100Z,86.40
2019-05-20T20:09:32.571Z,86.98
2019-05-20T20:12:00.987Z,87.08
2019-05-20T20:14:29.397Z,86.97
2019-05-20T20:16:58.030Z,86.94
2019-05-20T20:19:26.732Z,86.70
2019-05-20T20:21:55.204Z,87.28
2019-05-20T20:24:23.773Z,87.19
2019-05-20T20:26:52.322Z,87.19
2019-05-20T20:29:20.730Z,87.51
2019-05-20T20:31:49.149Z,86.93
2019-05-20T20:34:17.646Z,87.21
2019-05-20T20:36:46.090Z,87.38
2019-05-20T20:39:14.662Z,87.52
2019-05-20T20:41:43.171Z,87.87
2019-05-20T20:44:11.701Z,87.77
2019-05-20T20:46:40.791Z,87.94
2019-05-20T20:49:09.165Z,87.99
2019-05-20T20:51:37.673Z,88.36
2019-05-20T20:54:06.223Z,88.28
2019-05-20T20:56:34.713Z,88.17
2019-05-20T20:59:03.202Z,87.87
2019-05-20T21:01:31.631Z,87.79
2019-05-20T21:04:00.242Z,88.10
2019-05-20T21:06:28.668Z,87.96
2019-05-20T21:08:57.090Z,88.56
2019-05-20T21:11:25.584Z,88.78
2019-05-20T21:13:54.059Z,88.70
2019-05-20T21:16:22.488Z,88.24
2019-05-20T21:18:50.908Z,88.69
2019-05-20T21:21:19.399Z,88.72
2019-05-20T21:23:47.843Z,89.23
2019-05-20T21:26:16.252Z,88.92
2019-05-20T21:28:44.706Z,89.89
2019-05-20T21:31:13.157Z,89.67
2019-05-20T21:33:41.568Z,90.46
2019-05-20T21:36:09.991Z,90.85
2019-05-20T21:38:38.407Z,91.07
2019-05-20T21:41:07.090Z,90.93
2019-05-20T21:43:35.505Z,90.72
2019-05-20T21:46:03.905Z,90.98
2019-05-20T21:48:32.441Z,90.48
2019-05-20T21:51:00.843Z,90.66
2019-05-20T21:53:29.272Z,91.38
2019-05-20T21:55:57.702Z,91.51
2019-05-20T21:58:26.108Z,91.90
2019-05-20T22:00:56.414Z,91.93
2019-05-20T22:03:25.433Z,92.22
2019-05-20T22:05:54.097Z,92.58
2019-05-20T22:08:22.585Z,93.23
2019-05-20T22:10:51.077Z,93.71
2019-05-20T22:13:19.482Z,94.28
2019-05-20T22:15:47.915Z,94.70
2019-05-20T22:18:16.356Z,94.56
2019-05-20T22:20:44.794Z,94.90
2019-05-20T22:23:23.597Z,95.13
2019-05-20T22:25:52.679Z,95.51
2019-05-20T22:28:21.351Z,95.40
2019-05-20T22:30:49.765Z,95.63
2019-05-20T22:33:18.217Z,95.64
2019-05-20T22:35:46.652Z,95.44
2019-05-20T22:38:15.084Z,95.25
2019-05-20T22:40:43.885Z,95.52
2019-05-20T22:43:12.349Z,95.60
2019-05-20T22:45:40.777Z,95.54
2019-05-20T22:48:09.190Z,95.45
2019-05-20T22:50:37.651Z,95.27
2019-05-20T22:53:06.066Z,95.55
2019-05-20T22:55:34.504Z,96.00
2019-05-20T22:58:02.942Z,95.99
2019-05-20T23:00:31.341Z,96.09
2019-05-20T23:05:35.021Z,96.20
2019-05-20T23:08:03.444Z,96.04
2019-05-20T23:10:31.918Z,96.29
2019-05-20T23:13:00.330Z,96.08
2019-05-20T23:15:28.759Z,95.99
2019-05-20T23:17:57.203Z,95.86
2019-05-20T23:20:25.632Z,95.83
2019-05-20T23:22:54.054Z,96.19
2019-05-20T23:25:22.472Z,96.23
2019-05-20T23:27:50.982Z,96.16
2019-05-20T23:30:19.543Z,95.66
2019-05-20T23:32:47.988Z,95.82
2019-05-20T23:35:16.413Z,95.76
2019-05-20T23:37:44.870Z,96.23
2019-05-20T23:40:13.420Z,96.15
2019-05-20T23:42:41.864Z,95.76
2019-05-20T23:45:11.129Z,95.82
2019-05-20T23:47:39.584Z,95.91
2019-05-20T23:50:08.154Z,96.05
2019-05-20T23:52:36.573Z,95.89
2019-05-20T23:55:07.661Z,95.62
2019-05-20T23:57:36.111Z,95.55
